Terminal Aerodrome Forecast
Issued by NWS Grand Forks, ND

Home | Current Version | Previous Version | Text Only | Print | Product List | Glossary Off
Versions: 1 2 3 4 5 6 7 8 9 10 11 12 13 14 15 16 17 18

000
FTUS43 KFGF 042355
TAFFAR
TAF
KFAR 042355Z 0500/0524 17013KT P6SM SKC
     FM050400 17009KT P6SM VCTS BKN070CB
     FM050700 17009KT P6SM BKN250
     FM051500 17010KT P6SM BKN080=

USA.gov is the U.S. government's official web portal to all federal, state and local government web resources and services.